CMA CGM Tosca — FMEL — position and weather

sailwx.info

Track history (hours):
 
Tides and Currents Weather Stations Pressure Air Temp Water Temp Dewpoint Dewpoint Depression Visibility Wind Speed Wind Dir Waves Ship Positions

CMA CGM Tosca

Last reported at 2014-Oct-01 22:24 UTC. Time now 2014-Oct-02 00:31 UTC.
Position N 24°32' E 119°20'.

; draft 9.3 m.

Type: Cargo ship. MMSI: 228335900.

Date/timePositionNaut miles runAvg speedWind from/ knotsBaromVisibWave heightAir tempDewpointWater temp
2014-Oct-01 22:24N 24°32' E 119°20'2419.0
2014-Oct-01 21:08N 24°16' E 119°00'3019.0
2014-Oct-01 19:32N 24°01' E 118°32'1919.3
2014-Oct-01 18:34N 23°50' E 118°14'2020.0
2014-Oct-01 17:34N 23°37' E 117°58'2219.8
2014-Oct-01 16:26N 23°26' E 117°37'20617.2
2014-Oct-01 04:27N 22°17' E 114°06'3 0.2
2014-Sep-30 15:26N 22°20' E 114°07'  
2014-Sep-26 11:32N 01°15' E 104°06'1515.2
2014-Sep-26 10:33N 01°11' E 103°51'8 7.7
2014-Sep-26 09:33N 01°16' E 103°45'1 0.7
2014-Sep-26 08:32N 01°17' E 103°45'0 0.0
2014-Sep-26 07:32N 01°17' E 103°45'0 0.0
2014-Sep-26 06:32N 01°17' E 103°45'0 0.0
2014-Sep-26 05:32N 01°17' E 103°45'0 0.0
2014-Sep-26 04:32N 01°17' E 103°45'0 0.0
2014-Sep-26 03:32N 01°17' E 103°45'0 0.0
2014-Sep-26 02:32N 01°17' E 103°45'0 0.0
2014-Sep-26 01:32N 01°17' E 103°45'0 0.0
2014-Sep-26 00:32N 01°17' E 103°45'0 0.0
2014-Sep-25 23:32N 01°17' E 103°45'0 0.0
2014-Sep-25 22:32N 01°17' E 103°45'0 0.0
2014-Sep-25 21:32N 01°17' E 103°45'0 0.0
2014-Sep-25 20:32N 01°17' E 103°45'0 0.0
2014-Sep-25 19:32N 01°17' E 103°45'0 0.0
2014-Sep-25 18:32N 01°17' E 103°45'0 0.0
2014-Sep-25 17:32N 01°17' E 103°45'0 0.0
2014-Sep-25 16:33N 01°17' E 103°45'1 0.8
2014-Sep-25 15:34N 01°17' E 103°44'3 3.0
2014-Sep-25 14:33N 01°14' E 103°43'9 9.0
2014-Sep-25 13:33N 01°12' E 103°35'7 7.4
2014-Sep-25 12:33N 01°11' E 103°27'7 6.9
2014-Sep-25 11:33N 01°15' E 103°21'  
Track history (hours):
 
Tides and Currents Weather Stations Pressure Air Temp Water Temp Dewpoint Dewpoint Depression Visibility Wind Speed Wind Dir Waves Ship Positions

CMA CGM Tosca

Last reported at 2014-Oct-01 22:24 UTC. Time now 2014-Oct-02 00:31 UTC.
Position N 24°32' E 119°20'.

; draft 9.3 m.

Type: Cargo ship. MMSI: 228335900.

Date/timePositionNaut miles runAvg speedWind from/ knotsBaromVisibWave heightAir tempDewpointWater temp
2014-Oct-01 22:24N 24°32' E 119°20'2419.0
2014-Oct-01 21:08N 24°16' E 119°00'3019.0
2014-Oct-01 19:32N 24°01' E 118°32'1919.3
2014-Oct-01 18:34N 23°50' E 118°14'2020.0
2014-Oct-01 17:34N 23°37' E 117°58'2219.8
2014-Oct-01 16:26N 23°26' E 117°37'20617.2
2014-Oct-01 04:27N 22°17' E 114°06'3 0.2
2014-Sep-30 15:26N 22°20' E 114°07'  
2014-Sep-26 11:32N 01°15' E 104°06'1515.2
2014-Sep-26 10:33N 01°11' E 103°51'8 7.7
2014-Sep-26 09:33N 01°16' E 103°45'1 0.7
2014-Sep-26 08:32N 01°17' E 103°45'0 0.0
2014-Sep-26 07:32N 01°17' E 103°45'0 0.0
2014-Sep-26 06:32N 01°17' E 103°45'0 0.0
2014-Sep-26 05:32N 01°17' E 103°45'0 0.0
2014-Sep-26 04:32N 01°17' E 103°45'0 0.0
2014-Sep-26 03:32N 01°17' E 103°45'0 0.0
2014-Sep-26 02:32N 01°17' E 103°45'0 0.0
2014-Sep-26 01:32N 01°17' E 103°45'0 0.0
2014-Sep-26 00:32N 01°17' E 103°45'0 0.0
2014-Sep-25 23:32N 01°17' E 103°45'0 0.0
2014-Sep-25 22:32N 01°17' E 103°45'0 0.0
2014-Sep-25 21:32N 01°17' E 103°45'0 0.0
2014-Sep-25 20:32N 01°17' E 103°45'0 0.0
2014-Sep-25 19:32N 01°17' E 103°45'0 0.0
2014-Sep-25 18:32N 01°17' E 103°45'0 0.0
2014-Sep-25 17:32N 01°17' E 103°45'0 0.0
2014-Sep-25 16:33N 01°17' E 103°45'1 0.8
2014-Sep-25 15:34N 01°17' E 103°44'3 3.0
2014-Sep-25 14:33N 01°14' E 103°43'9 9.0
2014-Sep-25 13:33N 01°12' E 103°35'7 7.4
2014-Sep-25 12:33N 01°11' E 103°27'7 6.9
2014-Sep-25 11:33N 01°15' E 103°21'  

Dump ship's entire track history